createdAt,value
2022-08-01T00:00:54.685Z,1.20
2022-08-01T00:03:56.720Z,1.27
2022-08-01T00:06:58.737Z,1.35
2022-08-01T00:10:01.083Z,1.15
2022-08-01T00:13:03.145Z,1.10
2022-08-01T00:16:05.336Z,1.35
2022-08-01T00:19:07.459Z,1.25
2022-08-01T00:22:09.942Z,1.15
2022-08-01T00:25:12.232Z,1.55
2022-08-01T00:28:14.667Z,1.38
2022-08-01T00:31:16.785Z,1.45
2022-08-01T00:34:18.835Z,1.13
2022-08-01T00:37:20.954Z,1.67
2022-08-01T00:40:23.507Z,1.48
2022-08-01T00:43:25.733Z,1.10
2022-08-01T00:46:27.819Z,1.52
2022-08-01T00:49:30.314Z,0.98
2022-08-01T00:52:34.611Z,1.33
2022-08-01T00:55:36.746Z,1.60
2022-08-01T00:58:38.819Z,1.08
2022-08-01T01:01:46.729Z,1.50
2022-08-01T01:04:52.001Z,1.55
2022-08-01T01:07:57.069Z,1.58
2022-08-01T01:11:26.458Z,1.48
2022-08-01T01:14:40.203Z,1.77
2022-08-01T01:17:53.021Z,1.40
2022-08-01T01:21:07.293Z,1.38
2022-08-01T01:24:18.518Z,1.63
2022-08-01T01:27:43.794Z,1.75
2022-08-01T01:30:50.092Z,1.15
2022-08-01T01:33:55.266Z,1.20
2022-08-01T01:36:59.293Z,1.80
2022-08-01T01:40:03.911Z,1.48
2022-08-01T01:43:12.132Z,1.50
2022-08-01T01:46:19.025Z,1.02
2022-08-01T01:49:24.698Z,1.30
2022-08-01T01:52:28.877Z,1.50
2022-08-01T01:55:32.029Z,1.00
2022-08-01T01:58:35.624Z,1.08
2022-08-01T02:02:05.117Z,1.00
2022-08-01T02:05:00.383Z,1.20
2022-08-01T02:08:04.990Z,1.30
2022-08-01T02:11:19.853Z,1.20
2022-08-01T02:14:24.651Z,1.05
2022-08-01T02:17:28.211Z,1.05
2022-08-01T02:20:31.527Z,1.10
2022-08-01T02:23:37.173Z,1.17
2022-08-01T02:26:43.119Z,1.40
2022-08-01T02:29:53.339Z,1.30
2022-08-01T02:33:03.108Z,1.40
2022-08-01T02:36:31.110Z,1.38
2022-08-01T02:39:31.374Z,1.67
2022-08-01T02:42:36.106Z,1.38
2022-08-01T02:45:43.705Z,1.85
2022-08-01T02:48:47.236Z,1.80
2022-08-01T02:51:50.713Z,1.10
2022-08-01T02:54:56.039Z,1.42
2022-08-01T02:58:00.985Z,1.60
2022-08-01T03:01:06.254Z,2.03
2022-08-01T03:04:11.362Z,1.48
2022-08-01T03:07:14.489Z,1.65
2022-08-01T03:10:17.920Z,1.65
2022-08-01T03:13:22.825Z,1.40
2022-08-01T03:16:27.505Z,1.58
2022-08-01T03:19:32.653Z,1.52
2022-08-01T03:22:36.113Z,1.50
2022-08-01T03:25:41.599Z,2.03
2022-08-01T03:28:47.207Z,2.00
2022-08-01T03:31:50.567Z,2.03
2022-08-01T03:34:53.181Z,1.92
2022-08-01T03:41:22.219Z,2.05
2022-08-01T03:44:28.452Z,1.60
2022-08-01T03:47:44.621Z,2.30
2022-08-01T03:50:49.984Z,2.35
2022-08-01T03:53:55.586Z,2.30
2022-08-01T03:56:59.341Z,1.88
2022-08-01T04:00:02.313Z,2.47
2022-08-01T04:03:15.071Z,2.45
2022-08-01T04:06:18.320Z,3.05
2022-08-01T04:09:20.788Z,2.70
2022-08-01T04:12:23.070Z,2.50
2022-08-01T04:15:25.098Z,2.90
2022-08-01T04:18:27.475Z,2.95
2022-08-01T04:21:33.573Z,2.28
2022-08-01T04:24:37.572Z,2.75
2022-08-01T04:27:50.612Z,2.92
2022-08-01T04:31:01.574Z,3.03
2022-08-01T04:34:06.894Z,3.75
2022-08-01T04:37:13.269Z,3.20
2022-08-01T04:40:17.190Z,3.20
2022-08-01T04:43:19.991Z,2.63
2022-08-01T04:46:23.428Z,3.03
2022-08-01T04:49:25.577Z,3.60
2022-08-01T04:52:37.891Z,2.42
2022-08-01T04:55:40.543Z,3.08
2022-08-01T04:58:43.495Z,3.72
2022-08-01T05:01:49.912Z,3.92
2022-08-01T05:04:51.976Z,4.85
2022-08-01T05:07:54.023Z,5.80
2022-08-01T05:10:56.388Z,5.60
2022-08-01T05:13:58.498Z,4.07
2022-08-01T05:17:04.163Z,5.15
2022-08-01T05:20:09.479Z,3.97
2022-08-01T05:23:38.374Z,4.18
2022-08-01T05:26:34.158Z,4.70
2022-08-01T05:29:44.289Z,4.82
2022-08-01T05:32:46.699Z,3.70
2022-08-01T05:35:49.476Z,4.55
2022-08-01T05:38:51.560Z,4.72
2022-08-01T05:41:53.575Z,4.78
2022-08-01T05:44:55.654Z,4.50
2022-08-01T05:47:57.670Z,3.78
2022-08-01T05:50:59.700Z,4.45
2022-08-01T05:54:01.856Z,4.80
2022-08-01T05:57:03.968Z,3.85
2022-08-01T06:00:06.996Z,4.15
2022-08-01T06:03:15.395Z,5.15
2022-08-01T06:06:17.782Z,3.55
2022-08-01T06:09:19.824Z,3.25
2022-08-01T06:12:21.879Z,3.00
2022-08-01T06:15:25.490Z,3.13
2022-08-01T06:18:27.622Z,3.10
2022-08-01T06:21:29.782Z,2.38
2022-08-01T06:24:31.772Z,2.33
2022-08-01T06:27:36.355Z,2.60
2022-08-01T06:30:38.553Z,2.63
2022-08-01T06:33:40.775Z,2.67
2022-08-01T06:36:42.909Z,3.47
2022-08-01T06:39:45.285Z,2.85
2022-08-01T06:42:47.742Z,2.75
2022-08-01T06:45:50.336Z,3.10
2022-08-01T06:48:52.459Z,2.50
2022-08-01T06:51:54.577Z,2.55
2022-08-01T06:54:56.750Z,2.70
2022-08-01T06:57:58.858Z,3.17
2022-08-01T07:01:01.648Z,2.70
2022-08-01T07:04:04.337Z,2.90
2022-08-01T07:07:06.389Z,3.00
2022-08-01T07:10:09.728Z,2.60
2022-08-01T07:13:13.297Z,3.15
2022-08-01T07:16:16.485Z,2.72
2022-08-01T07:19:19.099Z,2.25
2022-08-01T07:22:23.328Z,2.45
2022-08-01T07:25:25.623Z,2.47
2022-08-01T07:28:27.771Z,3.10
2022-08-01T07:31:32.329Z,3.10
2022-08-01T07:34:34.788Z,2.67
2022-08-01T07:37:48.651Z,3.08
2022-08-01T07:40:51.484Z,2.80
2022-08-01T07:43:58.027Z,2.70
2022-08-01T07:47:02.694Z,2.53
2022-08-01T07:50:06.209Z,2.20
2022-08-01T07:53:08.297Z,2.97
2022-08-01T07:56:10.903Z,2.67
2022-08-01T07:59:13.052Z,2.42
2022-08-01T08:02:25.583Z,2.75
2022-08-01T08:05:58.423Z,2.28
2022-08-01T08:08:50.586Z,2.10
2022-08-01T08:11:52.851Z,2.20
2022-08-01T08:14:54.966Z,2.45
2022-08-01T08:17:59.706Z,2.38
2022-08-01T08:21:06.490Z,1.67
2022-08-01T08:24:26.870Z,2.08
2022-08-01T08:27:29.322Z,2.13
2022-08-01T08:30:32.657Z,2.35
2022-08-01T08:33:34.810Z,2.20
2022-08-01T08:36:37.020Z,1.98
2022-08-01T08:39:41.757Z,2.30
2022-08-01T08:42:45.379Z,1.73
2022-08-01T08:45:59.004Z,2.40
2022-08-01T08:49:04.834Z,2.42
2022-08-01T08:52:09.474Z,2.40
2022-08-01T08:55:15.690Z,1.88
2022-08-01T08:58:20.535Z,2.60
2022-08-01T09:01:23.110Z,1.98
2022-08-01T09:04:26.736Z,2.25
2022-08-01T09:07:28.995Z,2.50
2022-08-01T09:10:31.033Z,1.70
2022-08-01T09:13:34.352Z,2.67
2022-08-01T09:16:44.162Z,3.03
2022-08-01T09:19:57.515Z,2.35
2022-08-01T09:22:59.931Z,2.15
2022-08-01T09:26:02.055Z,1.90
2022-08-01T09:29:10.328Z,1.85
2022-08-01T09:32:14.058Z,1.30
2022-08-01T09:35:29.822Z,2.05
2022-08-01T09:38:33.545Z,1.83
2022-08-01T09:41:39.924Z,1.33
2022-08-01T09:44:54.553Z,1.75
2022-08-01T09:47:57.984Z,1.60
2022-08-01T09:51:07.284Z,1.48
2022-08-01T09:54:11.521Z,2.30
2022-08-01T09:57:19.061Z,2.33
2022-08-01T10:00:43.682Z,1.40
2022-08-01T10:03:43.215Z,1.10
2022-08-01T10:06:51.073Z,1.13
2022-08-01T10:09:53.580Z,0.88
2022-08-01T10:12:59.053Z,0.93
2022-08-01T10:16:02.410Z,1.08
2022-08-01T10:19:11.354Z,1.23
2022-08-01T10:22:18.998Z,0.85
2022-08-01T10:25:42.850Z,1.85
2022-08-01T10:28:45.841Z,1.27
2022-08-01T10:31:50.475Z,1.20
2022-08-01T10:34:53.650Z,1.13
2022-08-01T10:37:59.155Z,1.33
2022-08-01T10:41:06.508Z,1.17
2022-08-01T10:44:10.902Z,0.88
2022-08-01T10:47:18.180Z,0.75
2022-08-01T10:50:34.910Z,1.05
2022-08-01T10:53:42.774Z,0.98
2022-08-01T10:56:52.525Z,0.95
2022-08-01T10:59:59.296Z,0.70
2022-08-01T11:03:04.977Z,1.05
2022-08-01T11:06:08.662Z,0.82
2022-08-01T11:09:16.437Z,0.73
2022-08-01T11:12:22.962Z,0.70
2022-08-01T11:15:29.558Z,0.70
2022-08-01T11:18:37.434Z,0.85
2022-08-01T11:21:59.328Z,0.90
2022-08-01T11:25:03.377Z,0.73
2022-08-01T11:28:32.442Z,0.93
2022-08-01T11:31:38.167Z,0.82
2022-08-01T11:34:58.622Z,0.90
2022-08-01T11:38:39.747Z,0.73
2022-08-01T11:41:44.819Z,0.95
2022-08-01T11:44:51.399Z,1.35
2022-08-01T11:47:53.609Z,1.48
2022-08-01T11:50:58.476Z,1.13
2022-08-01T11:54:04.634Z,0.70
2022-08-01T11:57:10.943Z,1.05
2022-08-01T12:00:15.447Z,1.10
2022-08-01T12:03:33.145Z,0.90
2022-08-01T12:06:36.121Z,0.73
2022-08-01T12:09:38.319Z,0.90
2022-08-01T12:12:49.439Z,0.88
2022-08-01T12:15:56.562Z,0.75
2022-08-01T12:19:00.149Z,0.93
2022-08-01T12:22:31.286Z,0.80
2022-08-01T12:25:33.567Z,1.73
2022-08-01T12:28:41.902Z,0.90
2022-08-01T12:31:45.461Z,1.15
2022-08-01T12:34:47.545Z,0.60
2022-08-01T12:37:55.062Z,0.63
2022-08-01T12:40:57.155Z,0.63
2022-08-01T12:43:59.397Z,0.90
2022-08-01T12:47:03.880Z,0.70
2022-08-01T12:50:12.460Z,0.68
2022-08-01T12:53:19.796Z,0.93
2022-08-01T12:56:33.711Z,0.93
2022-08-01T12:59:35.937Z,1.27
2022-08-01T13:02:40.046Z,1.02
2022-08-01T13:05:46.889Z,1.23
2022-08-01T13:08:48.928Z,1.00
2022-08-01T13:12:04.349Z,1.10
2022-08-01T13:15:25.056Z,1.10
2022-08-01T13:18:30.874Z,0.85
2022-08-01T13:21:53.050Z,0.98
2022-08-01T13:25:10.808Z,1.63
2022-08-01T13:28:27.174Z,1.90
2022-08-01T13:31:34.697Z,1.20
2022-08-01T13:34:36.874Z,1.97
2022-08-01T13:37:43.382Z,1.55
2022-08-01T13:40:45.596Z,1.55
2022-08-01T13:43:58.280Z,1.88
2022-08-01T13:47:03.200Z,2.45
2022-08-01T13:50:19.071Z,3.20
2022-08-01T13:53:21.243Z,1.98
2022-08-01T13:56:23.724Z,2.42
2022-08-01T13:59:25.930Z,3.30
2022-08-01T14:02:28.507Z,2.60
2022-08-01T14:05:32.205Z,2.55
2022-08-01T14:08:34.479Z,3.00
2022-08-01T14:11:37.603Z,3.05
2022-08-01T14:14:40.327Z,2.60
2022-08-01T14:17:47.583Z,3.35
2022-08-01T14:20:50.760Z,2.42
2022-08-01T14:23:56.588Z,3.08
2022-08-01T14:26:58.706Z,2.50
2022-08-01T14:30:03.628Z,3.03
2022-08-01T14:33:08.382Z,3.13
2022-08-01T14:36:29.401Z,2.28
2022-08-01T14:39:32.548Z,2.83
2022-08-01T14:42:34.892Z,2.97
2022-08-01T14:45:37.012Z,3.40
2022-08-01T14:48:39.086Z,3.42
2022-08-01T14:51:41.687Z,3.95
2022-08-01T14:54:43.766Z,4.00
2022-08-01T14:57:45.818Z,3.72
2022-08-01T15:00:48.486Z,3.72
2022-08-01T15:03:51.770Z,3.65
2022-08-01T15:06:55.052Z,4.03
2022-08-01T15:09:57.294Z,3.55
2022-08-01T15:13:01.150Z,3.63
2022-08-01T15:16:03.526Z,3.35
2022-08-01T15:19:05.655Z,3.60
2022-08-01T15:22:08.240Z,4.00
2022-08-01T15:25:10.634Z,3.42
2022-08-01T15:28:12.998Z,3.53
2022-08-01T15:31:15.054Z,3.78
2022-08-01T15:34:17.367Z,2.83
2022-08-01T15:37:19.741Z,4.35
2022-08-01T15:40:21.841Z,4.00
2022-08-01T15:43:23.921Z,4.30
2022-08-01T15:46:29.150Z,3.70
2022-08-01T15:49:32.156Z,3.45
2022-08-01T15:52:34.310Z,3.45
2022-08-01T15:55:38.409Z,3.65
2022-08-01T15:58:41.655Z,3.53
2022-08-01T16:01:44.161Z,3.65
2022-08-01T16:04:46.364Z,3.17
2022-08-01T16:07:58.099Z,3.13
2022-08-01T16:11:03.629Z,3.15
2022-08-01T16:14:06.747Z,3.83
2022-08-01T16:17:10.726Z,3.40
2022-08-01T16:20:12.918Z,3.50
2022-08-01T16:23:15.387Z,3.00
2022-08-01T16:26:27.737Z,3.05
2022-08-01T16:29:32.018Z,3.20
2022-08-01T16:32:39.639Z,3.25
2022-08-01T16:35:46.880Z,2.92
2022-08-01T16:38:53.118Z,2.95
2022-08-01T16:41:55.555Z,3.17
2022-08-01T16:44:59.549Z,3.58
2022-08-01T16:48:01.936Z,3.45
2022-08-01T16:51:04.195Z,2.47
2022-08-01T16:54:25.020Z,2.80
2022-08-01T16:57:28.670Z,3.42
2022-08-01T17:00:30.875Z,2.92
2022-08-01T17:03:52.487Z,3.50
2022-08-01T17:06:54.902Z,2.60
2022-08-01T17:09:56.980Z,3.00
2022-08-01T17:12:59.154Z,2.90
2022-08-01T17:16:01.331Z,4.45
2022-08-01T17:19:03.887Z,2.38
2022-08-01T17:22:06.029Z,7.85
2022-08-01T17:25:08.667Z,4.53
2022-08-01T17:28:18.466Z,2.97
2022-08-01T17:31:20.653Z,3.45
2022-08-01T17:34:22.734Z,6.20
2022-08-01T17:37:25.661Z,3.13
2022-08-01T17:40:40.094Z,3.83
2022-08-01T17:43:42.940Z,2.20
2022-08-01T17:46:45.001Z,2.97
2022-08-01T17:49:54.896Z,2.30
2022-08-01T17:52:57.343Z,2.38
2022-08-01T17:56:00.823Z,2.28
2022-08-01T17:59:02.935Z,2.10
2022-08-01T18:02:05.306Z,2.33
2022-08-01T18:05:09.559Z,3.08
2022-08-01T18:08:13.111Z,2.20
2022-08-01T18:11:17.021Z,1.88
2022-08-01T18:14:19.191Z,1.73
2022-08-01T18:17:21.699Z,2.33
2022-08-01T18:20:24.742Z,2.20
2022-08-01T18:23:26.797Z,1.77
2022-08-01T18:26:29.339Z,1.92
2022-08-01T18:29:46.922Z,1.48
2022-08-01T18:32:50.635Z,1.60
2022-08-01T18:35:53.835Z,1.83
2022-08-01T18:38:56.293Z,1.80
2022-08-01T18:42:00.199Z,1.65
2022-08-01T18:45:02.438Z,2.28
2022-08-01T18:48:04.910Z,2.40
2022-08-01T18:51:09.256Z,1.90
2022-08-01T18:54:14.969Z,2.03
2022-08-01T18:57:17.094Z,1.98
2022-08-01T19:00:23.194Z,1.75
2022-08-01T19:03:25.206Z,2.20
2022-08-01T19:06:28.347Z,1.88
2022-08-01T19:09:30.441Z,1.63
2022-08-01T19:12:32.546Z,2.90
2022-08-01T19:15:35.332Z,2.40
2022-08-01T19:18:38.276Z,2.13
2022-08-01T19:21:44.817Z,2.10
2022-08-01T19:24:47.407Z,1.90
2022-08-01T19:27:50.366Z,1.70
2022-08-01T19:30:54.385Z,2.25
2022-08-01T19:33:57.778Z,1.63
2022-08-01T19:37:00.039Z,1.98
2022-08-01T19:40:02.147Z,1.75
2022-08-01T19:43:06.898Z,1.63
2022-08-01T19:46:17.887Z,2.10
2022-08-01T19:49:22.213Z,1.73
2022-08-01T19:52:26.188Z,1.77
2022-08-01T19:55:30.161Z,2.05
2022-08-01T19:58:36.295Z,1.55
2022-08-01T20:01:38.509Z,1.70
2022-08-01T20:04:43.093Z,1.70
2022-08-01T20:07:45.235Z,1.38
2022-08-01T20:10:48.041Z,1.88
2022-08-01T20:13:51.150Z,1.80
2022-08-01T20:16:55.419Z,2.13
2022-08-01T20:19:57.488Z,1.73
2022-08-01T20:23:01.950Z,1.95
2022-08-01T20:26:04.556Z,2.00
2022-08-01T20:29:06.898Z,1.77
2022-08-01T20:32:10.803Z,1.52
2022-08-01T20:35:12.993Z,2.15
2022-08-01T20:38:16.495Z,1.80
2022-08-01T20:41:19.361Z,1.60
2022-08-01T20:44:22.277Z,1.63
2022-08-01T20:47:24.786Z,1.95
2022-08-01T20:50:53.806Z,1.60
2022-08-01T20:53:56.658Z,2.03
2022-08-01T20:57:07.758Z,1.45
2022-08-01T21:00:10.962Z,1.90
2022-08-01T21:03:19.709Z,1.73
2022-08-01T21:06:30.550Z,1.80
2022-08-01T21:09:39.672Z,1.60
2022-08-01T21:13:07.878Z,1.83
2022-08-01T21:16:24.036Z,1.52
2022-08-01T21:19:29.520Z,1.52
2022-08-01T21:22:55.764Z,1.38
2022-08-01T21:25:59.419Z,1.90
2022-08-01T21:29:06.286Z,1.98
2022-08-01T21:32:13.022Z,1.77
2022-08-01T21:35:16.646Z,1.80
2022-08-01T21:38:21.366Z,1.70
2022-08-01T21:42:03.312Z,1.77
2022-08-01T21:44:48.706Z,1.88
2022-08-01T21:47:52.078Z,1.98
2022-08-01T21:50:58.350Z,1.75
2022-08-01T21:54:10.442Z,1.55
2022-08-01T21:57:22.463Z,1.45
2022-08-01T22:00:25.489Z,1.83
2022-08-01T22:03:41.196Z,2.15
2022-08-01T22:06:45.654Z,1.95
2022-08-01T22:09:51.626Z,1.67
2022-08-01T22:12:54.098Z,2.03
2022-08-01T22:15:58.136Z,2.13
2022-08-01T22:19:04.371Z,2.33
2022-08-01T22:22:32.352Z,1.65
2022-08-01T22:25:33.261Z,1.85
2022-08-01T22:28:37.200Z,2.50
2022-08-01T22:31:40.155Z,1.70
2022-08-01T22:34:42.694Z,1.83
2022-08-01T22:37:57.102Z,1.80
2022-08-01T22:41:10.039Z,1.80
2022-08-01T22:44:14.896Z,1.95
2022-08-01T22:47:44.442Z,1.48
2022-08-01T22:50:50.886Z,2.13
2022-08-01T22:54:11.641Z,2.33
2022-08-01T22:57:24.482Z,1.77
2022-08-01T23:00:30.616Z,1.92
2022-08-01T23:03:39.857Z,1.75
2022-08-01T23:06:43.261Z,1.58
2022-08-01T23:09:54.150Z,1.75
2022-08-01T23:12:57.700Z,2.03
2022-08-01T23:16:01.645Z,1.90
2022-08-01T23:19:04.033Z,1.33
2022-08-01T23:22:06.102Z,1.92
2022-08-01T23:25:11.257Z,2.60
2022-08-01T23:28:13.979Z,2.15
2022-08-01T23:31:17.086Z,2.20
2022-08-01T23:34:20.128Z,1.83
2022-08-01T23:37:23.106Z,2.17
2022-08-01T23:40:25.438Z,1.92
2022-08-01T23:43:27.611Z,2.05
2022-08-01T23:46:29.831Z,2.15
2022-08-01T23:49:32.567Z,2.55
2022-08-01T23:52:54.894Z,2.00
2022-08-01T23:56:01.064Z,2.60
2022-08-01T23:59:04.880Z,2.05
